createdAt,value
2023-02-09T00:00:16.944Z,4.75
2023-02-09T00:02:44.990Z,4.75
2023-02-09T00:05:11.695Z,4.00
2023-02-09T00:07:38.285Z,4.07
2023-02-09T00:10:06.213Z,5.60
2023-02-09T00:12:51.355Z,4.20
2023-02-09T00:15:17.994Z,5.90
2023-02-09T00:17:44.581Z,4.60
2023-02-09T00:20:11.414Z,4.30
2023-02-09T00:22:37.944Z,4.30
2023-02-09T00:25:04.766Z,3.72
2023-02-09T00:27:32.272Z,4.43
2023-02-09T00:29:58.901Z,3.78
2023-02-09T00:32:25.418Z,4.90
2023-02-09T00:34:51.968Z,3.90
2023-02-09T00:37:18.465Z,4.22
2023-02-09T00:39:45.664Z,4.65
2023-02-09T00:42:12.192Z,4.35
2023-02-09T00:44:40.328Z,5.15
2023-02-09T00:47:08.289Z,5.25
2023-02-09T00:49:35.050Z,4.38
2023-02-09T00:52:01.646Z,4.97
2023-02-09T00:54:28.360Z,3.83
2023-02-09T00:56:54.932Z,4.78
2023-02-09T00:59:21.490Z,5.03
2023-02-09T01:01:48.008Z,4.18
2023-02-09T01:04:14.659Z,5.25
2023-02-09T01:06:41.220Z,5.30
2023-02-09T01:09:07.854Z,4.65
2023-02-09T01:11:34.357Z,4.47
2023-02-09T01:14:02.381Z,5.03
2023-02-09T01:16:31.486Z,4.63
2023-02-09T01:19:00.209Z,5.45
2023-02-09T01:21:29.593Z,5.00
2023-02-09T01:23:56.593Z,4.82
2023-02-09T01:26:23.243Z,5.40
2023-02-09T01:28:53.091Z,4.72
2023-02-09T01:31:33.396Z,4.75
2023-02-09T01:34:02.078Z,4.57
2023-02-09T01:36:30.357Z,4.57
2023-02-09T01:38:58.999Z,4.53
2023-02-09T01:41:26.406Z,4.78
2023-02-09T01:44:02.555Z,4.80
2023-02-09T01:46:34.313Z,4.30
2023-02-09T01:49:09.662Z,5.15
2023-02-09T01:51:48.724Z,4.10
2023-02-09T01:54:21.153Z,4.07
2023-02-09T01:56:52.163Z,4.28
2023-02-09T01:59:19.353Z,4.28
2023-02-09T02:01:46.278Z,4.38
2023-02-09T02:04:13.563Z,4.20
2023-02-09T02:06:40.538Z,6.30
2023-02-09T02:09:18.012Z,4.78
2023-02-09T02:11:47.488Z,5.25
2023-02-09T02:14:37.849Z,5.15
2023-02-09T02:17:36.719Z,5.30
2023-02-09T02:20:31.240Z,4.60
2023-02-09T02:23:09.286Z,4.55
2023-02-09T02:26:05.694Z,4.60
2023-02-09T02:29:29.569Z,5.43
2023-02-09T02:32:25.189Z,5.38
2023-02-09T02:35:14.939Z,4.07
2023-02-09T02:37:56.617Z,4.88
2023-02-09T02:41:04.542Z,5.78
2023-02-09T02:43:57.142Z,4.70
2023-02-09T02:46:33.967Z,4.05
2023-02-09T02:49:10.538Z,4.25
2023-02-09T02:51:41.900Z,4.05
2023-02-09T02:54:15.161Z,4.97
2023-02-09T02:56:45.502Z,5.53
2023-02-09T02:59:17.049Z,5.25
2023-02-09T03:01:49.787Z,5.20
2023-02-09T03:04:18.027Z,4.10
2023-02-09T03:06:44.557Z,3.75
2023-02-09T03:09:11.620Z,4.32
2023-02-09T03:11:42.181Z,5.05
2023-02-09T03:14:46.725Z,5.55
2023-02-09T03:17:31.561Z,4.07
2023-02-09T03:20:08.503Z,4.27
2023-02-09T03:22:39.022Z,4.75
2023-02-09T03:25:12.390Z,5.88
2023-02-09T03:27:51.824Z,4.68
2023-02-09T03:30:20.186Z,3.60
2023-02-09T03:32:47.633Z,5.15
2023-02-09T03:35:19.278Z,5.15
2023-02-09T03:37:45.859Z,5.38
2023-02-09T03:40:12.638Z,5.25
2023-02-09T03:42:39.167Z,5.05
2023-02-09T03:45:07.934Z,5.53
2023-02-09T03:47:34.592Z,5.05
2023-02-09T03:50:01.067Z,5.03
2023-02-09T03:52:27.685Z,4.82
2023-02-09T03:54:54.200Z,5.68
2023-02-09T03:57:20.711Z,5.30
2023-02-09T03:59:47.251Z,5.72
2023-02-09T04:02:14.776Z,5.65
2023-02-09T04:04:41.374Z,3.97
2023-02-09T04:07:08.011Z,4.85
2023-02-09T04:09:34.771Z,4.90
2023-02-09T04:12:01.490Z,5.88
2023-02-09T04:14:28.103Z,4.75
2023-02-09T04:16:54.730Z,4.63
2023-02-09T04:19:21.235Z,5.75
2023-02-09T04:21:51.450Z,4.68
2023-02-09T04:24:25.965Z,4.60
2023-02-09T04:26:52.596Z,4.95
2023-02-09T04:29:19.197Z,5.72
2023-02-09T04:31:45.735Z,4.95
2023-02-09T04:34:12.386Z,5.05
2023-02-09T04:36:38.933Z,5.22
2023-02-09T04:39:05.488Z,4.72
2023-02-09T04:41:31.995Z,5.30
2023-02-09T04:43:58.586Z,4.88
2023-02-09T04:46:25.092Z,4.47
2023-02-09T04:48:51.653Z,4.40
2023-02-09T04:51:18.124Z,4.90
2023-02-09T04:53:44.910Z,6.50
2023-02-09T04:56:15.877Z,5.80
2023-02-09T04:59:02.110Z,6.38
2023-02-09T05:01:29.245Z,4.70
2023-02-09T05:03:55.835Z,5.88
2023-02-09T05:06:22.787Z,4.85
2023-02-09T05:08:49.298Z,5.00
2023-02-09T05:11:15.967Z,5.30
2023-02-09T05:13:42.605Z,4.93
2023-02-09T05:16:13.437Z,5.07
2023-02-09T05:18:40.056Z,5.63
2023-02-09T05:21:06.576Z,5.47
2023-02-09T05:23:33.100Z,5.60
2023-02-09T05:25:59.651Z,5.85
2023-02-09T05:28:26.353Z,5.15
2023-02-09T05:30:55.780Z,6.18
2023-02-09T05:33:25.808Z,5.53
2023-02-09T05:35:55.616Z,7.05
2023-02-09T05:38:22.215Z,6.15
2023-02-09T05:40:49.070Z,5.60
2023-02-09T05:43:15.924Z,5.30
2023-02-09T05:45:43.173Z,6.63
2023-02-09T05:48:09.763Z,5.65
2023-02-09T05:50:36.264Z,7.65
2023-02-09T05:53:08.137Z,5.72
2023-02-09T05:55:35.129Z,6.30
2023-02-09T05:58:01.677Z,5.88
2023-02-09T06:00:29.720Z,6.38
2023-02-09T06:02:56.918Z,6.80
2023-02-09T06:05:23.462Z,5.82
2023-02-09T06:07:50.468Z,5.88
2023-02-09T06:10:18.027Z,6.32
2023-02-09T06:12:44.677Z,6.20
2023-02-09T06:15:11.515Z,6.28
2023-02-09T06:17:38.190Z,6.53
2023-02-09T06:20:05.244Z,6.45
2023-02-09T06:22:31.843Z,5.70
2023-02-09T06:24:58.429Z,5.43
2023-02-09T06:27:25.053Z,5.63
2023-02-09T06:29:51.609Z,6.20
2023-02-09T06:32:18.287Z,5.13
2023-02-09T06:34:44.800Z,5.22
2023-02-09T06:37:11.400Z,6.22
2023-02-09T06:39:37.880Z,6.03
2023-02-09T06:42:04.457Z,5.85
2023-02-09T06:44:30.953Z,5.45
2023-02-09T06:46:57.582Z,5.97
2023-02-09T06:49:25.199Z,5.03
2023-02-09T06:51:51.854Z,5.32
2023-02-09T06:54:18.537Z,6.53
2023-02-09T06:56:45.082Z,6.32
2023-02-09T06:59:11.617Z,5.50
2023-02-09T07:01:38.506Z,6.72
2023-02-09T07:04:05.067Z,6.78
2023-02-09T07:06:31.645Z,5.35
2023-02-09T07:08:58.137Z,6.20
2023-02-09T07:11:24.700Z,6.45
2023-02-09T07:13:51.207Z,6.40
2023-02-09T07:16:18.633Z,7.03
2023-02-09T07:18:45.211Z,7.40
2023-02-09T07:21:15.766Z,6.07
2023-02-09T07:23:42.393Z,7.22
2023-02-09T07:26:15.109Z,7.45
2023-02-09T07:28:42.136Z,7.60
2023-02-09T07:31:11.520Z,5.80
2023-02-09T07:33:38.440Z,6.38
2023-02-09T07:36:07.799Z,7.10
2023-02-09T07:38:35.389Z,7.22
2023-02-09T07:41:04.047Z,6.97
2023-02-09T07:43:31.346Z,5.88
2023-02-09T07:46:02.519Z,7.00
2023-02-09T07:48:29.978Z,7.72
2023-02-09T07:50:56.899Z,5.88
2023-02-09T07:53:23.885Z,7.15
2023-02-09T07:55:50.492Z,6.63
2023-02-09T07:58:19.745Z,6.57
2023-02-09T08:00:48.147Z,6.93
2023-02-09T08:03:17.194Z,6.05
2023-02-09T08:06:04.176Z,7.07
2023-02-09T08:08:30.794Z,6.25
2023-02-09T08:10:59.382Z,7.00
2023-02-09T08:13:30.962Z,5.97
2023-02-09T08:16:02.706Z,6.90
2023-02-09T08:18:34.533Z,7.35
2023-02-09T08:21:01.312Z,6.68
2023-02-09T08:23:34.341Z,6.55
2023-02-09T08:26:06.266Z,7.15
2023-02-09T08:28:43.617Z,6.28
2023-02-09T08:31:18.737Z,6.57
2023-02-09T08:33:47.411Z,6.95
2023-02-09T08:36:15.037Z,6.15
2023-02-09T08:38:41.956Z,7.55
2023-02-09T08:41:10.527Z,7.68
2023-02-09T08:43:37.108Z,7.03
2023-02-09T08:46:09.259Z,6.80
2023-02-09T08:48:39.792Z,7.60
2023-02-09T08:51:07.998Z,7.40
2023-02-09T08:53:35.268Z,7.55
2023-02-09T08:56:01.892Z,7.95
2023-02-09T08:58:30.056Z,7.57
2023-02-09T09:01:00.333Z,7.97
2023-02-09T09:03:31.189Z,6.57
2023-02-09T09:08:33.115Z,7.32
2023-02-09T09:11:00.004Z,7.75
2023-02-09T09:13:27.194Z,7.78
2023-02-09T09:15:57.306Z,7.65
2023-02-09T09:18:25.680Z,7.97
2023-02-09T09:20:53.152Z,8.20
2023-02-09T09:23:21.082Z,7.43
2023-02-09T09:25:48.145Z,7.55
2023-02-09T09:28:15.647Z,7.65
2023-02-09T09:30:42.413Z,6.57
2023-02-09T09:33:09.087Z,6.72
2023-02-09T09:35:35.717Z,6.97
2023-02-09T09:38:02.420Z,6.45
2023-02-09T09:40:34.458Z,7.25
2023-02-09T09:43:04.882Z,7.72
2023-02-09T09:45:35.190Z,6.47
2023-02-09T09:48:01.966Z,6.05
2023-02-09T09:50:42.686Z,7.43
2023-02-09T09:53:28.656Z,6.40
2023-02-09T09:55:59.214Z,6.20
2023-02-09T09:58:27.696Z,6.68
2023-02-09T10:00:54.569Z,6.40
2023-02-09T10:03:23.528Z,6.38
2023-02-09T10:05:53.060Z,6.43
2023-02-09T10:08:31.614Z,7.18
2023-02-09T10:11:21.586Z,6.70
2023-02-09T10:13:56.808Z,5.45
2023-02-09T10:16:28.098Z,6.28
2023-02-09T10:18:57.955Z,5.82
2023-02-09T10:21:28.074Z,6.65
2023-02-09T10:24:00.818Z,7.38
2023-02-09T10:26:30.886Z,7.38
2023-02-09T10:29:10.958Z,5.97
2023-02-09T10:31:43.386Z,6.70
2023-02-09T10:34:15.337Z,6.75
2023-02-09T10:36:50.437Z,5.90
2023-02-09T10:39:20.552Z,5.30
2023-02-09T10:41:51.218Z,6.28
2023-02-09T10:44:34.771Z,5.60
2023-02-09T10:47:27.007Z,7.32
2023-02-09T10:49:59.572Z,5.90
2023-02-09T10:52:31.015Z,5.60
2023-02-09T10:55:02.551Z,5.88
2023-02-09T10:57:30.628Z,5.43
2023-02-09T10:59:59.517Z,6.50
2023-02-09T11:02:37.149Z,4.55
2023-02-09T11:05:23.739Z,6.43
2023-02-09T11:08:00.364Z,6.57
2023-02-09T11:10:34.956Z,7.38
2023-02-09T11:13:02.360Z,6.30
2023-02-09T11:15:39.369Z,6.40
2023-02-09T11:18:16.902Z,6.60
2023-02-09T11:20:55.405Z,6.38
2023-02-09T11:23:21.971Z,5.90
2023-02-09T11:26:03.847Z,5.97
2023-02-09T11:28:38.828Z,5.80
2023-02-09T11:31:32.867Z,6.10
2023-02-09T11:34:36.824Z,6.63
2023-02-09T11:37:30.486Z,6.50
2023-02-09T11:40:22.954Z,4.68
2023-02-09T11:42:56.782Z,7.32
2023-02-09T11:45:29.306Z,6.45
2023-02-09T11:48:14.080Z,5.70
2023-02-09T11:51:03.577Z,6.20
2023-02-09T11:53:45.069Z,6.55
2023-02-09T11:56:15.026Z,6.05
2023-02-09T11:58:49.447Z,6.47
2023-02-09T12:01:34.208Z,6.20
2023-02-09T12:04:09.743Z,7.07
2023-02-09T12:06:59.652Z,6.68
2023-02-09T12:09:29.496Z,6.15
2023-02-09T12:12:05.739Z,6.13
2023-02-09T12:14:43.792Z,6.47
2023-02-09T12:17:31.493Z,5.47
2023-02-09T12:20:02.492Z,6.03
2023-02-09T12:22:35.175Z,6.72
2023-02-09T12:25:10.907Z,6.22
2023-02-09T12:27:41.123Z,5.55
2023-02-09T12:30:42.723Z,6.78
2023-02-09T12:33:29.330Z,5.85
2023-02-09T12:36:05.034Z,7.07
2023-02-09T12:39:04.740Z,6.45
2023-02-09T12:41:51.810Z,5.97
2023-02-09T12:44:19.298Z,5.63
2023-02-09T12:46:48.506Z,6.25
2023-02-09T12:49:15.632Z,6.20
2023-02-09T12:51:55.184Z,6.43
2023-02-09T12:54:31.409Z,6.47
2023-02-09T12:57:18.855Z,5.88
2023-02-09T13:00:09.572Z,5.10
2023-02-09T13:02:50.755Z,6.40
2023-02-09T13:05:18.908Z,5.82
2023-02-09T13:07:51.580Z,5.28
2023-02-09T13:10:30.709Z,6.35
2023-02-09T13:13:10.344Z,6.13
2023-02-09T13:16:04.732Z,6.32
2023-02-09T13:18:44.209Z,6.05
2023-02-09T13:21:27.315Z,6.82
2023-02-09T13:23:59.484Z,6.28
2023-02-09T13:26:30.911Z,6.65
2023-02-09T13:29:21.432Z,6.43
2023-02-09T13:32:00.731Z,7.20
2023-02-09T13:34:33.585Z,5.88
2023-02-09T13:37:00.263Z,6.03
2023-02-09T13:39:32.137Z,6.80
2023-02-09T13:41:59.044Z,7.60
2023-02-09T13:44:28.822Z,6.65
2023-02-09T13:47:06.494Z,6.60
2023-02-09T13:49:33.076Z,7.15
2023-02-09T13:52:13.395Z,7.65
2023-02-09T13:54:40.900Z,7.50
2023-02-09T13:57:18.104Z,7.25
2023-02-09T13:59:44.918Z,6.15
2023-02-09T14:02:21.086Z,7.43
2023-02-09T14:04:52.999Z,6.93
2023-02-09T14:07:22.258Z,6.55
2023-02-09T14:10:02.638Z,6.45
2023-02-09T14:12:52.459Z,7.32
2023-02-09T14:15:40.401Z,7.82
2023-02-09T14:18:31.917Z,6.82
2023-02-09T14:21:04.534Z,6.35
2023-02-09T14:23:32.787Z,6.65
2023-02-09T14:26:22.530Z,7.53
2023-02-09T14:29:04.835Z,6.88
2023-02-09T14:31:34.969Z,6.68
2023-02-09T14:34:02.128Z,6.38
2023-02-09T14:36:35.696Z,6.50
2023-02-09T14:39:17.079Z,6.90
2023-02-09T14:42:00.437Z,6.95
2023-02-09T14:44:27.686Z,5.70
2023-02-09T14:46:59.456Z,5.43
2023-02-09T14:49:27.231Z,6.22
2023-02-09T14:52:15.037Z,6.68
2023-02-09T14:54:49.805Z,6.50
2023-02-09T14:57:16.661Z,6.80
2023-02-09T14:59:43.227Z,8.18
2023-02-09T15:02:19.980Z,5.82
2023-02-09T15:04:47.033Z,6.55
2023-02-09T15:07:19.987Z,7.78
2023-02-09T15:09:47.054Z,6.32
2023-02-09T15:12:26.249Z,6.75
2023-02-09T15:14:58.494Z,6.43
2023-02-09T15:17:29.052Z,5.80
2023-02-09T15:19:57.008Z,7.03
2023-02-09T15:22:24.736Z,6.70
2023-02-09T15:24:54.355Z,6.65
2023-02-09T15:27:28.510Z,6.65
2023-02-09T15:29:59.011Z,7.72
2023-02-09T15:32:26.621Z,6.47
2023-02-09T15:34:54.190Z,6.60
2023-02-09T15:37:32.840Z,5.63
2023-02-09T15:40:38.990Z,6.55
2023-02-09T15:43:58.532Z,6.47
2023-02-09T15:46:43.975Z,6.07
2023-02-09T15:49:10.922Z,6.57
2023-02-09T15:51:39.476Z,7.35
2023-02-09T15:54:12.002Z,7.10
2023-02-09T15:56:39.447Z,7.72
2023-02-09T15:59:06.199Z,6.55
2023-02-09T16:01:36.926Z,5.88
2023-02-09T16:04:13.937Z,8.18
2023-02-09T16:06:45.971Z,7.28
2023-02-09T16:09:18.847Z,6.25
2023-02-09T16:11:45.566Z,6.40
2023-02-09T16:14:20.440Z,6.78
2023-02-09T16:16:47.916Z,7.00
2023-02-09T16:19:15.116Z,6.57
2023-02-09T16:21:44.835Z,8.40
2023-02-09T16:24:40.599Z,5.80
2023-02-09T16:27:23.272Z,7.35
2023-02-09T16:29:49.923Z,6.43
2023-02-09T16:32:18.670Z,7.05
2023-02-09T16:34:45.704Z,6.63
2023-02-09T16:37:18.342Z,6.07
2023-02-09T16:39:45.657Z,7.07
2023-02-09T16:42:14.355Z,5.75
2023-02-09T16:44:41.601Z,6.22
2023-02-09T16:47:18.761Z,6.13
2023-02-09T16:49:57.698Z,7.30
2023-02-09T16:52:28.138Z,7.47
2023-02-09T16:55:12.017Z,7.15
2023-02-09T16:57:38.726Z,7.15
2023-02-09T17:00:05.573Z,7.80
2023-02-09T17:02:34.187Z,7.55
2023-02-09T17:05:02.827Z,7.10
2023-02-09T17:07:35.701Z,7.25
2023-02-09T17:10:15.226Z,6.35
2023-02-09T17:15:27.463Z,7.25
2023-02-09T17:18:02.351Z,7.10
2023-02-09T17:20:44.103Z,6.75
2023-02-09T17:23:23.570Z,6.57
2023-02-09T17:25:51.681Z,6.90
2023-02-09T17:28:19.138Z,6.13
2023-02-09T17:30:47.875Z,6.35
2023-02-09T17:33:26.724Z,6.30
2023-02-09T17:38:42.648Z,6.43
2023-02-09T17:41:18.800Z,5.80
2023-02-09T17:43:47.011Z,6.30
2023-02-09T17:46:18.802Z,5.88
2023-02-09T17:48:46.725Z,5.88
2023-02-09T17:51:35.936Z,7.20
2023-02-09T17:54:04.178Z,8.00
2023-02-09T17:56:30.774Z,7.43
2023-02-09T17:58:57.670Z,6.57
2023-02-09T18:01:30.936Z,6.30
2023-02-09T18:04:00.435Z,7.45
2023-02-09T18:06:38.772Z,7.10
2023-02-09T18:09:08.363Z,7.45
2023-02-09T18:11:52.038Z,7.15
2023-02-09T18:14:20.920Z,7.75
2023-02-09T18:16:49.049Z,7.32
2023-02-09T18:19:16.783Z,6.93
2023-02-09T18:22:02.748Z,7.45
2023-02-09T18:24:36.899Z,7.38
2023-02-09T18:27:04.059Z,7.72
2023-02-09T18:29:30.649Z,9.10
2023-02-09T18:32:01.840Z,7.18
2023-02-09T18:34:29.667Z,6.65
2023-02-09T18:36:56.223Z,8.15
2023-02-09T18:39:23.043Z,8.52
2023-02-09T18:41:54.310Z,7.72
2023-02-09T18:44:28.502Z,7.80
2023-02-09T18:46:56.042Z,7.75
2023-02-09T18:49:22.809Z,7.40
2023-02-09T18:51:49.645Z,7.22
2023-02-09T18:54:17.192Z,7.70
2023-02-09T18:56:47.421Z,8.32
2023-02-09T18:59:14.911Z,8.57
2023-02-09T19:01:41.904Z,8.20
2023-02-09T19:04:08.956Z,8.65
2023-02-09T19:06:35.729Z,7.75
2023-02-09T19:09:02.461Z,8.93
2023-02-09T19:11:29.128Z,7.75
2023-02-09T19:14:14.472Z,7.70
2023-02-09T19:16:41.326Z,7.85
2023-02-09T19:19:09.420Z,7.53
2023-02-09T19:21:36.258Z,8.48
2023-02-09T19:24:03.489Z,8.85
2023-02-09T19:26:30.206Z,7.93
2023-02-09T19:28:57.489Z,7.93
2023-02-09T19:31:25.395Z,9.75
2023-02-09T19:33:56.615Z,9.57
2023-02-09T19:36:24.446Z,8.90
2023-02-09T19:38:51.415Z,10.43
2023-02-09T19:41:20.241Z,8.60
2023-02-09T19:43:47.980Z,8.38
2023-02-09T19:46:17.749Z,8.60
2023-02-09T19:48:46.537Z,8.88
2023-02-09T19:51:13.393Z,9.40
2023-02-09T19:53:40.673Z,9.32
2023-02-09T19:56:07.664Z,8.32
2023-02-09T19:58:38.940Z,9.82
2023-02-09T20:01:09.295Z,9.88
2023-02-09T20:03:36.968Z,9.60
2023-02-09T20:06:13.169Z,8.82
2023-02-09T20:08:40.817Z,9.98
2023-02-09T20:11:10.347Z,9.50
2023-02-09T20:13:37.600Z,9.82
2023-02-09T20:16:14.686Z,10.35
2023-02-09T20:18:41.640Z,10.40
2023-02-09T20:21:09.418Z,10.07
2023-02-09T20:23:37.246Z,9.82
2023-02-09T20:26:16.690Z,10.48
2023-02-09T20:28:43.319Z,11.65
2023-02-09T20:31:11.231Z,11.10
2023-02-09T20:33:39.652Z,10.60
2023-02-09T20:36:09.922Z,9.90
2023-02-09T20:38:38.031Z,10.35
2023-02-09T20:41:10.087Z,11.98
2023-02-09T20:43:57.219Z,10.77
2023-02-09T20:46:43.943Z,9.80
2023-02-09T20:49:13.562Z,12.02
2023-02-09T20:51:40.426Z,11.05
2023-02-09T20:54:07.061Z,10.80
2023-02-09T20:56:34.009Z,10.82
2023-02-09T20:59:00.789Z,12.63
2023-02-09T21:01:29.100Z,12.73
2023-02-09T21:03:58.760Z,11.52
2023-02-09T21:06:26.231Z,11.52
2023-02-09T21:08:53.460Z,11.95
2023-02-09T21:11:20.130Z,11.43
2023-02-09T21:13:46.975Z,11.77
2023-02-09T21:16:20.257Z,14.00
2023-02-09T21:18:47.076Z,12.07
2023-02-09T21:21:16.574Z,13.60
2023-02-09T21:23:44.776Z,13.70
2023-02-09T21:26:15.605Z,14.00
2023-02-09T21:28:43.899Z,13.75
2023-02-09T21:31:13.449Z,13.38
2023-02-09T21:33:40.859Z,12.15
2023-02-09T21:36:08.765Z,14.45
2023-02-09T21:38:37.117Z,14.05
2023-02-09T21:41:36.527Z,14.73
2023-02-09T21:44:04.919Z,13.75
2023-02-09T21:46:32.241Z,12.93
2023-02-09T21:48:58.785Z,12.77
2023-02-09T21:51:25.519Z,13.45
2023-02-09T21:53:52.297Z,12.82
2023-02-09T21:56:19.270Z,13.07
2023-02-09T21:58:46.065Z,12.48
2023-02-09T22:01:12.980Z,12.85
2023-02-09T22:03:42.221Z,12.98
2023-02-09T22:06:09.015Z,13.60
2023-02-09T22:08:36.021Z,12.07
2023-02-09T22:11:04.228Z,13.35
2023-02-09T22:13:31.529Z,13.30
2023-02-09T22:15:58.685Z,12.93
2023-02-09T22:18:25.662Z,14.38
2023-02-09T22:20:52.311Z,13.05
2023-02-09T22:23:19.833Z,12.00
2023-02-09T22:25:46.678Z,13.32
2023-02-09T22:28:13.994Z,12.55
2023-02-09T22:30:40.898Z,13.18
2023-02-09T22:33:07.891Z,13.02
2023-02-09T22:35:34.429Z,13.15
2023-02-09T22:38:00.991Z,13.00
2023-02-09T22:40:27.615Z,13.20
2023-02-09T22:42:54.212Z,13.30
2023-02-09T22:45:20.720Z,14.00
2023-02-09T22:47:50.272Z,12.18
2023-02-09T22:50:16.880Z,13.88
2023-02-09T22:52:43.437Z,12.75
2023-02-09T22:55:10.121Z,14.50
2023-02-09T22:57:37.930Z,12.98
2023-02-09T23:00:11.620Z,13.32
2023-02-09T23:02:38.346Z,13.93
2023-02-09T23:05:05.101Z,13.90
2023-02-09T23:07:32.082Z,13.63
2023-02-09T23:09:58.838Z,12.52
2023-02-09T23:12:25.609Z,13.15
2023-02-09T23:14:54.504Z,13.55
2023-02-09T23:17:21.345Z,13.43
2023-02-09T23:19:47.989Z,13.15
2023-02-09T23:22:14.611Z,13.35
2023-02-09T23:24:41.154Z,13.30
2023-02-09T23:27:07.781Z,13.85
2023-02-09T23:29:34.472Z,13.50
2023-02-09T23:32:01.325Z,12.48
2023-02-09T23:34:28.016Z,13.18
2023-02-09T23:36:54.773Z,12.80
2023-02-09T23:39:26.760Z,14.05
2023-02-09T23:41:53.348Z,11.63
2023-02-09T23:44:20.509Z,12.57
2023-02-09T23:46:47.586Z,13.98
2023-02-09T23:49:14.274Z,11.52
2023-02-09T23:51:41.025Z,12.23
2023-02-09T23:54:08.233Z,14.27
2023-02-09T23:56:37.125Z,13.57
2023-02-09T23:59:06.583Z,14.38
